Main page


Airports :

Gorgan, Iran

Gorgan Airport

latitude: 36-49N, longitude: 054-28E, elevation: 155 m

Current weather observation

The report was made 38 minutes ago, at 04:00 UTC
Calm wind
Temperature 7°C
Humidity 100%
Pressure 1014 hPa
Visibility: 2500 m
Few clouds at a height of 3000 ft
Scattered clouds at a height of 9000 ft
Overcast at a height of 17000 ft

METAR: OING 170400Z 00000KT 2500 BR FEW030 SCT090 OVC170 07/07 Q1014

Time: 08:08 (04:38 UTC)

TAF: missing

Weather observations and forecasts of more than 4000 airports (METAR and TAF reports).

The available stations are represented by yellow and red dots on the map.

Hover mouse over dot to see the name of the station.

Then click to see weather observations and forecasts.

To change the map : click on the green buttons with a black cross to zoom in, on the green button with a dash to zoom out, or on the green arrows for adjacent maps.